EmailTwitter


Observations de surface / France / LFBP (07610)

Régions: Québec | Canada | États-Unis | Europe | France | UK | Elsewhere
Station
Affichage
Infos & localisation pour LFBP (07610) | Aide pour décoder les METARs

Observations prises le 2017-06-29 à 05H00 UTC à PONT-LONG-UZEIN/, FR (LFBP)

Etat du ciel: partiellement nuageux.

Obstacle(s) à la visibilité: faible pluie.

Température: 13.0 Celsius

Point de rosée: 11.0 Celsius

Humidité relative: 88%

Facteur vent: 11.

Facteur vent (rafales): 10.

Vents: Ouest à 30 km/h ou 16 noeuds.

Rafale du vent: 52 km/h ou 28 noeuds.

Pression au niveau moyen de la mer: 100.90 kilopascals.

Visibilité horizontale: 4.97 milles terrestres ou 7.95 kilomètres.

Hauteur du plafond: 1768 mètres ( 5800 pieds ).

Observation METAR:

LFBP 290500Z AUTO 27016G28KT 8000 -RA FEW032 SCT046 BKN058 13/11 Q1009 TEMPO

27025G40KT 4000 SHRA BKN010 BKN030TCU=